sensor_id;sensor_type;location;lat;lon;timestamp;pressure;altitude;pressure_sealevel;temperature;humidity
20228;BME280;12195;55.790;37.572;2022-11-20T00:00:50;99846.27;;;0.26;73.70
20228;BME280;12195;55.790;37.572;2022-11-20T00:03:21;99838.55;;;0.23;73.71
20228;BME280;12195;55.790;37.572;2022-11-20T00:05:52;99838.59;;;0.21;73.67
20228;BME280;12195;55.790;37.572;2022-11-20T00:08:24;99852.33;;;0.23;73.78
20228;BME280;12195;55.790;37.572;2022-11-20T00:10:55;99850.64;;;0.21;73.74
20228;BME280;12195;55.790;37.572;2022-11-20T00:13:26;99848.03;;;0.24;73.86
20228;BME280;12195;55.790;37.572;2022-11-20T00:15:57;99849.81;;;0.19;73.79
20228;BME280;12195;55.790;37.572;2022-11-20T00:18:28;99842.09;;;0.16;73.75
20228;BME280;12195;55.790;37.572;2022-11-20T00:21:03;99851.54;;;0.17;73.78
20228;BME280;12195;55.790;37.572;2022-11-20T00:23:34;99849.81;;;0.19;73.82
20228;BME280;12195;55.790;37.572;2022-11-20T00:26:06;99848.14;;;0.15;73.76
20228;BME280;12195;55.790;37.572;2022-11-20T00:28:37;99854.13;;;0.15;73.81
20228;BME280;12195;55.790;37.572;2022-11-20T00:31:12;99848.98;;;0.13;73.80
20228;BME280;12195;55.790;37.572;2022-11-20T00:33:43;99850.74;;;0.12;73.88
20228;BME280;12195;55.790;37.572;2022-11-20T00:36:15;99854.14;;;0.13;73.95
20228;BME280;12195;55.790;37.572;2022-11-20T00:38:46;99849.89;;;0.09;73.93
20228;BME280;12195;55.790;37.572;2022-11-20T00:41:17;99852.48;;;0.08;73.97
20228;BME280;12195;55.790;37.572;2022-11-20T00:43:49;99842.16;;;0.08;74.01
20228;BME280;12195;55.790;37.572;2022-11-20T00:46:23;99849.94;;;0.07;74.04
20228;BME280;12195;55.790;37.572;2022-11-20T00:48:54;99845.62;;;0.05;74.10
20228;BME280;12195;55.790;37.572;2022-11-20T00:51:26;99850.84;;;0.03;74.01
20228;BME280;12195;55.790;37.572;2022-11-20T00:53:57;99852.55;;;0.03;74.20
20228;BME280;12195;55.790;37.572;2022-11-20T00:56:29;99848.28;;;-0.01;74.17
20228;BME280;12195;55.790;37.572;2022-11-20T00:59:00;99850.02;;;-0.03;74.17
20228;BME280;12195;55.790;37.572;2022-11-20T01:01:31;99849.11;;;0.01;74.33
20228;BME280;12195;55.790;37.572;2022-11-20T01:04:02;99840.56;;;-0.02;74.34
20228;BME280;12195;55.790;37.572;2022-11-20T01:06:34;99845.70;;;-0.01;74.39
20228;BME280;12195;55.790;37.572;2022-11-20T01:09:07;99849.19;;;-0.05;74.35
20228;BME280;12195;55.790;37.572;2022-11-20T01:11:39;99841.45;;;-0.06;74.40
20228;BME280;12195;55.790;37.572;2022-11-20T01:14:11;99844.03;;;-0.05;74.36
20228;BME280;12195;55.790;37.572;2022-11-20T01:16:44;99849.20;;;-0.08;74.35
20228;BME280;12195;55.790;37.572;2022-11-20T01:19:22;99844.05;;;-0.08;74.40
20228;BME280;12195;55.790;37.572;2022-11-20T01:21:49;99839.78;;;-0.10;74.42
20228;BME280;12195;55.790;37.572;2022-11-20T01:24:21;99849.23;;;-0.11;74.47
20228;BME280;12195;55.790;37.572;2022-11-20T01:26:52;99839.77;;;-0.09;74.55
20228;BME280;12195;55.790;37.572;2022-11-20T01:29:24;99838.06;;;-0.10;74.52
20228;BME280;12195;55.790;37.572;2022-11-20T01:31:55;99846.65;;;-0.11;74.59
20228;BME280;12195;55.790;37.572;2022-11-20T01:34:25;99848.41;;;-0.13;74.55
20228;BME280;12195;55.790;37.572;2022-11-20T01:36:56;99843.25;;;-0.13;74.56
20228;BME280;12195;55.790;37.572;2022-11-20T01:39:27;99850.11;;;-0.12;74.59
20228;BME280;12195;55.790;37.572;2022-11-20T01:41:58;99850.09;;;-0.09;74.67
20228;BME280;12195;55.790;37.572;2022-11-20T01:47:27;99852.67;;;-0.09;74.62
20228;BME280;12195;55.790;37.572;2022-11-20T01:50:22;99859.55;;;-0.09;74.69
20228;BME280;12195;55.790;37.572;2022-11-20T01:52:34;99861.28;;;-0.10;74.75
20228;BME280;12195;55.790;37.572;2022-11-20T01:55:17;99862.13;;;-0.11;74.80
20228;BME280;12195;55.790;37.572;2022-11-20T01:57:40;99863.87;;;-0.10;74.81
20228;BME280;12195;55.790;37.572;2022-11-20T02:00:12;99869.85;;;-0.08;74.87
20228;BME280;12195;55.790;37.572;2022-11-20T02:02:46;99871.62;;;-0.11;74.87
20228;BME280;12195;55.790;37.572;2022-11-20T02:05:19;99871.59;;;-0.08;74.95
20228;BME280;12195;55.790;37.572;2022-11-20T02:07:48;99872.45;;;-0.11;75.00
20228;BME280;12195;55.790;37.572;2022-11-20T02:10:20;99875.91;;;-0.12;74.94
20228;BME280;12195;55.790;37.572;2022-11-20T02:12:51;99881.07;;;-0.12;74.98
20228;BME280;12195;55.790;37.572;2022-11-20T02:15:41;99886.23;;;-0.12;74.98
20228;BME280;12195;55.790;37.572;2022-11-20T02:18:14;99878.48;;;-0.10;75.07
20228;BME280;12195;55.790;37.572;2022-11-20T02:20:45;99885.39;;;-0.12;75.13
20228;BME280;12195;55.790;37.572;2022-11-20T02:23:22;99891.45;;;-0.18;75.02
20228;BME280;12195;55.790;37.572;2022-11-20T02:25:52;99889.71;;;-0.17;75.07
20228;BME280;12195;55.790;37.572;2022-11-20T02:28:24;99890.58;;;-0.17;75.16
20228;BME280;12195;55.790;37.572;2022-11-20T02:30:55;99900.05;;;-0.19;75.08
20228;BME280;12195;55.790;37.572;2022-11-20T02:33:25;99898.34;;;-0.21;75.06
20228;BME280;12195;55.790;37.572;2022-11-20T02:35:56;99900.97;;;-0.23;75.03
20228;BME280;12195;55.790;37.572;2022-11-20T02:38:27;99900.09;;;-0.22;75.07
20228;BME280;12195;55.790;37.572;2022-11-20T02:40:58;99898.39;;;-0.23;75.05
20228;BME280;12195;55.790;37.572;2022-11-20T02:43:29;99906.09;;;-0.21;75.14
20228;BME280;12195;55.790;37.572;2022-11-20T02:46:00;99906.95;;;-0.21;75.13
20228;BME280;12195;55.790;37.572;2022-11-20T02:48:30;99901.81;;;-0.24;75.10
20228;BME280;12195;55.790;37.572;2022-11-20T02:51:02;99900.11;;;-0.25;75.17
20228;BME280;12195;55.790;37.572;2022-11-20T02:53:33;99909.56;;;-0.25;75.13
20228;BME280;12195;55.790;37.572;2022-11-20T02:56:04;99913.02;;;-0.26;75.12
20228;BME280;12195;55.790;37.572;2022-11-20T02:58:35;99907.86;;;-0.28;75.12
20228;BME280;12195;55.790;37.572;2022-11-20T03:01:06;99910.44;;;-0.28;75.17
20228;BME280;12195;55.790;37.572;2022-11-20T03:03:37;99913.02;;;-0.28;75.18
20228;BME280;12195;55.790;37.572;2022-11-20T03:06:08;99910.45;;;-0.29;75.10
20228;BME280;12195;55.790;37.572;2022-11-20T03:08:39;99908.75;;;-0.30;75.10
20228;BME280;12195;55.790;37.572;2022-11-20T03:11:10;99920.81;;;-0.31;75.12
20228;BME280;12195;55.790;37.572;2022-11-20T03:13:41;99913.08;;;-0.32;75.11
20228;BME280;12195;55.790;37.572;2022-11-20T03:16:12;99918.23;;;-0.32;75.17
20228;BME280;12195;55.790;37.572;2022-11-20T03:18:44;99914.79;;;-0.33;75.13
20228;BME280;12195;55.790;37.572;2022-11-20T03:21:15;99910.51;;;-0.34;75.14
20228;BME280;12195;55.790;37.572;2022-11-20T03:23:46;99917.37;;;-0.33;75.21
20228;BME280;12195;55.790;37.572;2022-11-20T03:26:18;99915.67;;;-0.35;75.17
20228;BME280;12195;55.790;37.572;2022-11-20T03:28:49;99920.02;;;-0.40;75.18
20228;BME280;12195;55.790;37.572;2022-11-20T03:31:22;99923.48;;;-0.43;75.15
20228;BME280;12195;55.790;37.572;2022-11-20T03:33:53;99924.31;;;-0.42;75.16
20228;BME280;12195;55.790;37.572;2022-11-20T03:36:25;99926.89;;;-0.41;75.21
20228;BME280;12195;55.790;37.572;2022-11-20T03:38:56;99929.45;;;-0.38;75.19
20228;BME280;12195;55.790;37.572;2022-11-20T03:41:28;99922.59;;;-0.39;75.16
20228;BME280;12195;55.790;37.572;2022-11-20T03:44:01;99926.88;;;-0.38;75.16
20228;BME280;12195;55.790;37.572;2022-11-20T03:46:33;99920.85;;;-0.40;75.17
20228;BME280;12195;55.790;37.572;2022-11-20T03:49:04;99925.17;;;-0.39;75.22
20228;BME280;12195;55.790;37.572;2022-11-20T03:51:35;99926.88;;;-0.38;75.22
20228;BME280;12195;55.790;37.572;2022-11-20T03:54:07;99923.44;;;-0.40;75.16
20228;BME280;12195;55.790;37.572;2022-11-20T03:56:38;99934.61;;;-0.38;75.22
20228;BME280;12195;55.790;37.572;2022-11-20T03:59:10;99928.58;;;-0.37;75.17
20228;BME280;12195;55.790;37.572;2022-11-20T04:01:40;99942.34;;;-0.38;75.21
20228;BME280;12195;55.790;37.572;2022-11-20T04:04:13;99944.92;;;-0.36;75.20
20228;BME280;12195;55.790;37.572;2022-11-20T04:06:44;99941.48;;;-0.40;75.16
20228;BME280;12195;55.790;37.572;2022-11-20T04:09:15;99938.91;;;-0.41;75.15
20228;BME280;12195;55.790;37.572;2022-11-20T04:11:46;99939.78;;;-0.41;75.12
20228;BME280;12195;55.790;37.572;2022-11-20T04:14:17;99944.94;;;-0.41;75.09
20228;BME280;12195;55.790;37.572;2022-11-20T04:16:47;99948.34;;;-0.37;75.12
20228;BME280;12195;55.790;37.572;2022-11-20T04:19:18;99943.22;;;-0.39;75.03
20228;BME280;12195;55.790;37.572;2022-11-20T04:21:49;99944.05;;;-0.37;75.04
20228;BME280;12195;55.790;37.572;2022-11-20T04:24:20;99955.23;;;-0.38;75.02
20228;BME280;12195;55.790;37.572;2022-11-20T04:26:51;99965.55;;;-0.38;74.98
20228;BME280;12195;55.790;37.572;2022-11-20T04:29:22;99964.69;;;-0.37;74.95
20228;BME280;12195;55.790;37.572;2022-11-20T04:31:53;99962.10;;;-0.37;74.98
20228;BME280;12195;55.790;37.572;2022-11-20T04:34:24;99971.53;;;-0.34;75.02
20228;BME280;12195;55.790;37.572;2022-11-20T04:36:55;99969.82;;;-0.32;74.95
20228;BME280;12195;55.790;37.572;2022-11-20T04:39:26;99971.53;;;-0.34;74.93
20228;BME280;12195;55.790;37.572;2022-11-20T04:41:57;99981.85;;;-0.34;75.02
20228;BME280;12195;55.790;37.572;2022-11-20T04:44:35;99980.98;;;-0.33;74.97
20228;BME280;12195;55.790;37.572;2022-11-20T04:47:06;99987.00;;;-0.33;75.01
20228;BME280;12195;55.790;37.572;2022-11-20T04:49:37;99989.59;;;-0.33;74.96
20228;BME280;12195;55.790;37.572;2022-11-20T04:52:08;99996.44;;;-0.29;75.02
20228;BME280;12195;55.790;37.572;2022-11-20T04:54:39;100001.60;;;-0.30;74.97
20228;BME280;12195;55.790;37.572;2022-11-20T04:57:10;100005.05;;;-0.31;74.92
20228;BME280;12195;55.790;37.572;2022-11-20T04:59:42;99999.89;;;-0.30;75.00
20228;BME280;12195;55.790;37.572;2022-11-20T05:02:13;100005.03;;;-0.27;75.01
20228;BME280;12195;55.790;37.572;2022-11-20T05:04:44;100005.04;;;-0.28;74.93
20228;BME280;12195;55.790;37.572;2022-11-20T05:07:15;100008.47;;;-0.29;74.95
20228;BME280;12195;55.790;37.572;2022-11-20T05:09:46;100008.45;;;-0.28;74.95
20228;BME280;12195;55.790;37.572;2022-11-20T05:12:17;100011.03;;;-0.26;74.99
20228;BME280;12195;55.790;37.572;2022-11-20T05:14:47;100008.45;;;-0.26;74.98
20228;BME280;12195;55.790;37.572;2022-11-20T05:17:18;100010.16;;;-0.25;74.98
20228;BME280;12195;55.790;37.572;2022-11-20T05:19:49;100010.16;;;-0.25;74.94
20228;BME280;12195;55.790;37.572;2022-11-20T05:22:21;100017.02;;;-0.21;75.00
20228;BME280;12195;55.790;37.572;2022-11-20T05:24:52;100020.47;;;-0.22;75.01
20228;BME280;12195;55.790;37.572;2022-11-20T05:27:23;100022.17;;;-0.21;74.98
20228;BME280;12195;55.790;37.572;2022-11-20T05:29:54;100023.91;;;-0.22;74.95
20228;BME280;12195;55.790;37.572;2022-11-20T05:32:25;100027.33;;;-0.20;74.93
20228;BME280;12195;55.790;37.572;2022-11-20T05:34:56;100028.19;;;-0.18;74.98
20228;BME280;12195;55.790;37.572;2022-11-20T05:37:27;100031.59;;;-0.16;74.93
20228;BME280;12195;55.790;37.572;2022-11-20T05:39:58;100037.61;;;-0.12;74.98
20228;BME280;12195;55.790;37.572;2022-11-20T05:42:30;100042.77;;;-0.12;74.92
20228;BME280;12195;55.790;37.572;2022-11-20T05:45:02;100041.89;;;-0.10;74.89
20228;BME280;12195;55.790;37.572;2022-11-20T05:47:34;100044.43;;;-0.07;74.88
20228;BME280;12195;55.790;37.572;2022-11-20T05:50:05;100043.58;;;-0.04;74.90
20228;BME280;12195;55.790;37.572;2022-11-20T05:52:36;100041.83;;;-0.04;74.84
20228;BME280;12195;55.790;37.572;2022-11-20T05:55:07;100054.73;;;-0.02;74.83
20228;BME280;12195;55.790;37.572;2022-11-20T05:57:39;100052.09;;;0.04;74.86
20228;BME280;12195;55.790;37.572;2022-11-20T06:00:10;100057.24;;;0.05;74.84
20228;BME280;12195;55.790;37.572;2022-11-20T06:02:41;100058.98;;;0.05;74.81
20228;BME280;12195;55.790;37.572;2022-11-20T06:05:12;100058.05;;;0.13;74.72
20228;BME280;12195;55.790;37.572;2022-11-20T06:07:43;100070.83;;;0.33;74.37
20228;BME280;12195;55.790;37.572;2022-11-20T06:10:14;100060.36;;;0.45;74.01
20228;BME280;12195;55.790;37.572;2022-11-20T06:12:44;100079.20;;;0.59;73.86
20228;BME280;12195;55.790;37.572;2022-11-20T06:15:15;100081.70;;;0.68;73.65
20228;BME280;12195;55.790;37.572;2022-11-20T06:17:46;100085.94;;;0.77;73.25
20228;BME280;12195;55.790;37.572;2022-11-20T06:20:17;100083.34;;;0.78;73.16
20228;BME280;12195;55.790;37.572;2022-11-20T06:22:48;100091.91;;;0.82;73.08
20228;BME280;12195;55.790;37.572;2022-11-20T06:25:19;100081.50;;;0.88;73.03
20228;BME280;12195;55.790;37.572;2022-11-20T06:27:50;100087.44;;;0.97;72.92
20228;BME280;12195;55.790;37.572;2022-11-20T06:30:21;100095.14;;;1.03;72.80
20228;BME280;12195;55.790;37.572;2022-11-20T06:32:52;100089.09;;;1.04;72.70
20228;BME280;12195;55.790;37.572;2022-11-20T06:35:23;100100.33;;;1.02;72.77
20228;BME280;12195;55.790;37.572;2022-11-20T06:37:55;100105.59;;;0.93;72.80
20228;BME280;12195;55.790;37.572;2022-11-20T06:40:26;100117.67;;;0.88;73.00
20228;BME280;12195;55.790;37.572;2022-11-20T06:42:57;100120.36;;;0.77;73.07
20228;BME280;12195;55.790;37.572;2022-11-20T06:45:28;100111.80;;;0.72;73.09
20228;BME280;12195;55.790;37.572;2022-11-20T06:47:59;100110.93;;;0.72;73.13
20228;BME280;12195;55.790;37.572;2022-11-20T06:50:30;100110.09;;;0.73;73.12
20228;BME280;12195;55.790;37.572;2022-11-20T06:53:01;100112.62;;;0.76;73.04
20228;BME280;12195;55.790;37.572;2022-11-20T06:55:32;100105.73;;;0.78;73.05
20228;BME280;12195;55.790;37.572;2022-11-20T06:58:03;100103.96;;;0.81;73.05
20228;BME280;12195;55.790;37.572;2022-11-20T07:00:34;100101.36;;;0.83;73.00
20228;BME280;12195;55.790;37.572;2022-11-20T07:03:06;100091.83;;;0.88;72.92
20228;BME280;12195;55.790;37.572;2022-11-20T07:05:37;100102.17;;;0.88;72.84
20228;BME280;12195;55.790;37.572;2022-11-20T07:08:08;100112.47;;;0.94;72.86
20228;BME280;12195;55.790;37.572;2022-11-20T07:10:38;100113.27;;;1.00;72.73
20228;BME280;12195;55.790;37.572;2022-11-20T07:13:09;100107.22;;;1.00;72.53
20228;BME280;12195;55.790;37.572;2022-11-20T07:15:40;100098.62;;;1.01;72.50
20228;BME280;12195;55.790;37.572;2022-11-20T07:18:11;100091.67;;;1.06;72.23
20228;BME280;12195;55.790;37.572;2022-11-20T07:20:42;100095.08;;;1.08;72.16
20228;BME280;12195;55.790;37.572;2022-11-20T07:23:13;100084.70;;;1.12;72.10
20228;BME280;12195;55.790;37.572;2022-11-20T07:25:44;100098.42;;;1.17;72.14
20228;BME280;12195;55.790;37.572;2022-11-20T07:28:14;100114.75;;;1.21;72.18
20228;BME280;12195;55.790;37.572;2022-11-20T07:30:54;100115.63;;;1.20;72.22
20228;BME280;12195;55.790;37.572;2022-11-20T07:33:20;100107.89;;;1.18;72.23
20228;BME280;12195;55.790;37.572;2022-11-20T07:35:51;100111.33;;;1.20;72.27
20228;BME280;12195;55.790;37.572;2022-11-20T07:38:22;100112.16;;;1.21;72.05
20228;BME280;12195;55.790;37.572;2022-11-20T07:40:58;100113.92;;;1.19;72.07
20228;BME280;12195;55.790;37.572;2022-11-20T07:43:27;100105.39;;;1.11;72.10
20228;BME280;12195;55.790;37.572;2022-11-20T07:45:58;100105.41;;;1.09;72.12
20228;BME280;12195;55.790;37.572;2022-11-20T07:48:29;100111.45;;;1.08;72.13
20228;BME280;12195;55.790;37.572;2022-11-20T07:51:00;100127.80;;;1.09;72.14
20228;BME280;12195;55.790;37.572;2022-11-20T07:53:31;100116.62;;;1.08;72.20
20228;BME280;12195;55.790;37.572;2022-11-20T07:56:02;100122.63;;;1.09;72.11
20228;BME280;12195;55.790;37.572;2022-11-20T07:58:33;100123.50;;;1.09;72.11
20228;BME280;12195;55.790;37.572;2022-11-20T08:01:05;100128.65;;;1.12;72.10
20228;BME280;12195;55.790;37.572;2022-11-20T08:03:37;100122.58;;;1.16;72.12
20228;BME280;12195;55.790;37.572;2022-11-20T08:06:08;100128.55;;;1.21;72.09
20228;BME280;12195;55.790;37.572;2022-11-20T08:08:39;100124.12;;;1.34;72.01
20228;BME280;12195;55.790;37.572;2022-11-20T08:11:12;100131.64;;;1.53;71.84
20228;BME280;12195;55.790;37.572;2022-11-20T08:14:01;100144.41;;;1.68;71.70
20228;BME280;12195;55.790;37.572;2022-11-20T08:16:45;100128.77;;;1.76;71.57
20228;BME280;12195;55.790;37.572;2022-11-20T08:19:17;100132.94;;;1.86;71.17
20228;BME280;12195;55.790;37.572;2022-11-20T08:21:49;100128.79;;;1.74;71.21
20228;BME280;12195;55.790;37.572;2022-11-20T08:24:20;100140.95;;;1.68;71.31
20228;BME280;12195;55.790;37.572;2022-11-20T08:26:51;100148.74;;;1.65;71.42
20228;BME280;12195;55.790;37.572;2022-11-20T08:29:21;100135.83;;;1.62;71.32
20228;BME280;12195;55.790;37.572;2022-11-20T08:31:53;100141.92;;;1.58;71.41
20228;BME280;12195;55.790;37.572;2022-11-20T08:34:24;100134.16;;;1.58;71.39
20228;BME280;12195;55.790;37.572;2022-11-20T08:36:55;100145.37;;;1.58;71.38
20228;BME280;12195;55.790;37.572;2022-11-20T08:39:26;100148.83;;;1.59;71.40
20228;BME280;12195;55.790;37.572;2022-11-20T08:41:57;100149.67;;;1.58;71.46
20228;BME280;12195;55.790;37.572;2022-11-20T08:44:28;100147.02;;;1.65;71.47
20228;BME280;12195;55.790;37.572;2022-11-20T08:47:00;100147.80;;;1.72;71.42
20228;BME280;12195;55.790;37.572;2022-11-20T08:49:31;100149.51;;;1.73;71.43
20228;BME280;12195;55.790;37.572;2022-11-20T08:52:01;100157.24;;;1.76;71.53
20228;BME280;12195;55.790;37.572;2022-11-20T08:54:33;100160.75;;;1.70;71.67
20228;BME280;12195;55.790;37.572;2022-11-20T08:57:04;100162.54;;;1.67;71.68
20228;BME280;12195;55.790;37.572;2022-11-20T08:59:35;100170.30;;;1.67;71.75
20228;BME280;12195;55.790;37.572;2022-11-20T09:02:08;100169.41;;;1.68;71.75
20228;BME280;12195;55.790;37.572;2022-11-20T09:04:39;100178.06;;;1.67;71.66
20228;BME280;12195;55.790;37.572;2022-11-20T09:07:10;100181.47;;;1.69;71.58
20228;BME280;12195;55.790;37.572;2022-11-20T09:09:41;100178.00;;;1.70;71.51
20228;BME280;12195;55.790;37.572;2022-11-20T09:12:12;100190.05;;;1.72;71.46
20228;BME280;12195;55.790;37.572;2022-11-20T09:14:43;100199.48;;;1.76;71.44
20228;BME280;12195;55.790;37.572;2022-11-20T09:17:16;100206.41;;;1.77;71.27
20228;BME280;12195;55.790;37.572;2022-11-20T09:19:47;100201.24;;;1.76;71.21
20228;BME280;12195;55.790;37.572;2022-11-20T09:22:18;100200.38;;;1.75;71.08
20228;BME280;12195;55.790;37.572;2022-11-20T09:24:49;100209.83;;;1.78;70.86
20228;BME280;12195;55.790;37.572;2022-11-20T09:27:19;100213.34;;;1.72;70.63
20228;BME280;12195;55.790;37.572;2022-11-20T09:29:51;100230.64;;;1.69;70.56
20228;BME280;12195;55.790;37.572;2022-11-20T09:32:22;100227.23;;;1.67;70.47
20228;BME280;12195;55.790;37.572;2022-11-20T09:34:53;100228.94;;;1.68;70.45
20228;BME280;12195;55.790;37.572;2022-11-20T09:37:23;100239.29;;;1.68;70.29
20228;BME280;12195;55.790;37.572;2022-11-20T09:39:54;100237.59;;;1.65;70.18
20228;BME280;12195;55.790;37.572;2022-11-20T09:47:48;100241.89;;;1.65;70.03
20228;BME280;12195;55.790;37.572;2022-11-20T09:55:23;100250.52;;;1.67;69.94
20228;BME280;12195;55.790;37.572;2022-11-20T09:57:54;100249.66;;;1.65;69.86
20228;BME280;12195;55.790;37.572;2022-11-20T10:00:25;100247.08;;;1.65;69.93
20228;BME280;12195;55.790;37.572;2022-11-20T10:03:14;100248.77;;;1.67;69.88
20228;BME280;12195;55.790;37.572;2022-11-20T10:05:46;100236.67;;;1.71;69.90
20228;BME280;12195;55.790;37.572;2022-11-20T10:08:19;100239.20;;;1.74;69.64
20228;BME280;12195;55.790;37.572;2022-11-20T10:10:59;100250.45;;;1.71;69.79
20228;BME280;12195;55.790;37.572;2022-11-20T10:13:32;100258.23;;;1.70;69.86
20228;BME280;12195;55.790;37.572;2022-11-20T10:18:42;100255.69;;;1.68;69.90
20228;BME280;12195;55.790;37.572;2022-11-20T10:21:26;100255.70;;;1.67;69.98
20228;BME280;12195;55.790;37.572;2022-11-20T10:26:31;100248.77;;;1.67;70.14
20228;BME280;12195;55.790;37.572;2022-11-20T10:29:09;100259.11;;;1.69;70.19
20228;BME280;12195;55.790;37.572;2022-11-20T10:31:44;100265.16;;;1.68;70.23
20228;BME280;12195;55.790;37.572;2022-11-20T10:34:28;100262.59;;;1.65;70.13
20228;BME280;12195;55.790;37.572;2022-11-20T10:36:52;100266.89;;;1.66;70.03
20228;BME280;12195;55.790;37.572;2022-11-20T10:39:35;100265.16;;;1.68;69.80
20228;BME280;12195;55.790;37.572;2022-11-20T10:42:08;100269.53;;;1.63;69.87
20228;BME280;12195;55.790;37.572;2022-11-20T10:44:39;100259.12;;;1.66;69.83
20228;BME280;12195;55.790;37.572;2022-11-20T10:47:31;100263.52;;;1.58;69.88
20228;BME280;12195;55.790;37.572;2022-11-20T10:50:03;100262.70;;;1.56;70.02
20228;BME280;12195;55.790;37.572;2022-11-20T10:57:58;100275.41;;;1.78;69.23
20228;BME280;12195;55.790;37.572;2022-11-20T11:00:26;100273.70;;;1.77;68.89
20228;BME280;12195;55.790;37.572;2022-11-20T11:02:57;100279.77;;;1.75;68.75
20228;BME280;12195;55.790;37.572;2022-11-20T11:05:37;100288.37;;;1.74;68.43
20228;BME280;12195;55.790;37.572;2022-11-20T11:08:07;100286.70;;;1.70;68.55
20228;BME280;12195;55.790;37.572;2022-11-20T11:10:53;100287.65;;;1.63;68.57
20228;BME280;12195;55.790;37.572;2022-11-20T11:13:26;100284.20;;;1.61;68.81
20228;BME280;12195;55.790;37.572;2022-11-20T11:15:57;100291.05;;;1.66;68.62
20228;BME280;12195;55.790;37.572;2022-11-20T11:18:32;100291.98;;;1.59;68.54
20228;BME280;12195;55.790;37.572;2022-11-20T11:21:04;100291.06;;;1.65;68.20
20228;BME280;12195;55.790;37.572;2022-11-20T11:23:39;100305.81;;;1.55;68.19
20228;BME280;12195;55.790;37.572;2022-11-20T11:26:20;100309.34;;;1.48;68.52
20228;BME280;12195;55.790;37.572;2022-11-20T11:28:58;100299.84;;;1.49;68.61
20228;BME280;12195;55.790;37.572;2022-11-20T11:31:30;100302.44;;;1.47;68.76
20228;BME280;12195;55.790;37.572;2022-11-20T11:34:11;100300.70;;;1.49;68.71
20228;BME280;12195;55.790;37.572;2022-11-20T11:36:40;100305.86;;;1.52;68.93
20228;BME280;12195;55.790;37.572;2022-11-20T11:39:13;100308.48;;;1.48;69.02
20228;BME280;12195;55.790;37.572;2022-11-20T11:41:43;100305.02;;;1.47;69.12
20228;BME280;12195;55.790;37.572;2022-11-20T11:58:23;100312.77;;;1.50;68.74
20228;BME280;12195;55.790;37.572;2022-11-20T12:01:03;100307.55;;;1.56;67.20
20228;BME280;12195;55.790;37.572;2022-11-20T12:03:37;100313.56;;;1.57;66.09
20228;BME280;12195;55.790;37.572;2022-11-20T12:06:14;100318.83;;;1.48;66.35
20228;BME280;12195;55.790;37.572;2022-11-20T12:09:05;100324.81;;;1.53;65.68
20228;BME280;12195;55.790;37.572;2022-11-20T12:16:53;100323.27;;;1.34;66.66
20228;BME280;12195;55.790;37.572;2022-11-20T12:19:25;100336.95;;;1.43;66.91
20228;BME280;12195;55.790;37.572;2022-11-20T12:24:52;100326.70;;;1.31;67.06
20228;BME280;12195;55.790;37.572;2022-11-20T12:27:37;100326.70;;;1.33;66.73
20228;BME280;12195;55.790;37.572;2022-11-20T12:35:37;100316.42;;;1.27;66.97
20228;BME280;12195;55.790;37.572;2022-11-20T12:43:24;100326.84;;;1.15;67.05
20228;BME280;12195;55.790;37.572;2022-11-20T12:46:33;100320.81;;;1.13;67.40
20228;BME280;12195;55.790;37.572;2022-11-20T12:51:36;100325.08;;;1.20;66.47
20228;BME280;12195;55.790;37.572;2022-11-20T12:59:44;100322.56;;;1.12;66.67
20228;BME280;12195;55.790;37.572;2022-11-20T13:07:21;100338.90;;;1.16;66.91
20228;BME280;12195;55.790;37.572;2022-11-20T13:09:54;100343.20;;;1.17;66.96
20228;BME280;12195;55.790;37.572;2022-11-20T13:12:30;100338.91;;;1.14;67.03
20228;BME280;12195;55.790;37.572;2022-11-20T13:15:00;100344.05;;;1.20;66.53
20228;BME280;12195;55.790;37.572;2022-11-20T13:20:18;100347.53;;;1.16;66.22
20228;BME280;12195;55.790;37.572;2022-11-20T13:22:50;100348.36;;;1.18;66.00
20228;BME280;12195;55.790;37.572;2022-11-20T13:25:28;100351.80;;;1.23;65.54
20228;BME280;12195;55.790;37.572;2022-11-20T13:28:48;100342.43;;;1.06;65.75
20228;BME280;12195;55.790;37.572;2022-11-20T13:30:32;100344.20;;;0.98;66.04
20228;BME280;12195;55.790;37.572;2022-11-20T13:33:22;100351.06;;;1.03;66.28
20228;BME280;12195;55.790;37.572;2022-11-20T13:35:41;100357.95;;;1.04;66.45
20228;BME280;12195;55.790;37.572;2022-11-20T13:38:13;100348.50;;;0.99;66.44
20228;BME280;12195;55.790;37.572;2022-11-20T13:41:03;100351.95;;;0.98;66.76
20228;BME280;12195;55.790;37.572;2022-11-20T13:43:36;100361.43;;;0.96;66.89
20228;BME280;12195;55.790;37.572;2022-11-20T13:46:08;100362.30;;;0.98;67.01
20228;BME280;12195;55.790;37.572;2022-11-20T13:48:40;100361.36;;;1.06;66.85
20228;BME280;12195;55.790;37.572;2022-11-20T13:54:09;100357.95;;;1.01;66.78
20228;BME280;12195;55.790;37.572;2022-11-20T13:56:44;100360.53;;;1.03;66.84
20228;BME280;12195;55.790;37.572;2022-11-20T14:02:01;100370.88;;;1.03;67.04
20228;BME280;12195;55.790;37.572;2022-11-20T14:04:35;100374.34;;;1.02;67.07
20228;BME280;12195;55.790;37.572;2022-11-20T14:07:07;100374.33;;;1.03;67.26
20228;BME280;12195;55.790;37.572;2022-11-20T14:09:48;100382.92;;;1.04;67.31
20228;BME280;12195;55.790;37.572;2022-11-20T14:12:15;100375.99;;;1.09;67.09
20228;BME280;12195;55.790;37.572;2022-11-20T14:14:50;100374.28;;;1.11;67.16
20228;BME280;12195;55.790;37.572;2022-11-20T14:17:23;100375.16;;;1.08;67.34
20228;BME280;12195;55.790;37.572;2022-11-20T14:19:56;100372.58;;;1.07;67.38
20228;BME280;12195;55.790;37.572;2022-11-20T14:22:28;100376.04;;;1.06;67.42
20228;BME280;12195;55.790;37.572;2022-11-20T14:25:06;100383.78;;;1.07;67.51
20228;BME280;12195;55.790;37.572;2022-11-20T14:27:38;100394.97;;;1.08;67.57
20228;BME280;12195;55.790;37.572;2022-11-20T14:30:21;100388.09;;;1.08;67.60
20228;BME280;12195;55.790;37.572;2022-11-20T14:32:46;100400.13;;;1.11;67.78
20228;BME280;12195;55.790;37.572;2022-11-20T14:35:23;100397.55;;;1.12;67.77